createdAt,value
2023-05-11T00:08:37.367Z,2.08
2023-05-11T00:13:40.685Z,1.97
2023-05-11T00:18:43.567Z,1.93
2023-05-11T00:23:47.519Z,2.70
2023-05-11T00:28:50.178Z,2.00
2023-05-11T00:33:52.835Z,2.40
2023-05-11T00:38:56.970Z,1.83
2023-05-11T00:43:59.705Z,2.00
2023-05-11T00:49:02.739Z,1.73
2023-05-11T00:54:06.916Z,1.85
2023-05-11T00:59:09.615Z,1.97
2023-05-11T01:04:12.722Z,1.75
2023-05-11T01:09:31.466Z,2.60
2023-05-11T01:14:42.095Z,2.00
2023-05-11T01:19:53.140Z,2.22
2023-05-11T01:25:17.153Z,2.15
2023-05-11T01:30:31.448Z,2.70
2023-05-11T01:35:42.229Z,2.60
2023-05-11T01:40:50.825Z,2.63
2023-05-11T01:46:01.943Z,2.47
2023-05-11T01:51:07.505Z,2.78
2023-05-11T01:56:12.143Z,2.27
2023-05-11T02:01:18.274Z,2.60
2023-05-11T02:06:25.188Z,3.00
2023-05-11T02:11:30.787Z,2.70
2023-05-11T02:16:36.853Z,2.00
2023-05-11T02:21:43.387Z,3.53
2023-05-11T02:26:46.150Z,2.58
2023-05-11T02:32:00.893Z,3.67
2023-05-11T02:37:10.625Z,2.67
2023-05-11T02:42:18.507Z,2.83
2023-05-11T02:47:28.448Z,3.15
2023-05-11T02:52:34.672Z,2.40
2023-05-11T02:57:38.711Z,3.35
2023-05-11T03:02:45.508Z,3.27
2023-05-11T03:07:49.048Z,2.53
2023-05-11T03:12:52.452Z,2.75
2023-05-11T03:17:59.909Z,2.60
2023-05-11T03:23:05.121Z,3.00
2023-05-11T03:28:12.652Z,3.43
2023-05-11T03:33:21.867Z,3.40
2023-05-11T03:38:28.365Z,3.42
2023-05-11T03:43:36.901Z,2.70
2023-05-11T03:48:42.474Z,3.10
2023-05-11T03:53:45.891Z,3.30
2023-05-11T03:58:49.668Z,2.90
2023-05-11T04:03:54.450Z,3.22
2023-05-11T04:08:58.971Z,3.20
2023-05-11T04:14:02.795Z,3.42
2023-05-11T04:19:07.013Z,3.00
2023-05-11T04:24:10.640Z,3.50
2023-05-11T04:29:13.195Z,2.95
2023-05-11T04:34:17.053Z,2.97
2023-05-11T04:39:19.961Z,2.57
2023-05-11T04:44:22.549Z,2.67
2023-05-11T04:49:26.685Z,3.23
2023-05-11T04:54:29.335Z,2.45
2023-05-11T04:59:31.924Z,3.08
2023-05-11T05:04:36.591Z,2.63
2023-05-11T05:09:40.642Z,3.33
2023-05-11T05:14:43.963Z,3.10
2023-05-11T05:19:47.858Z,2.50
2023-05-11T05:24:50.534Z,3.53
2023-05-11T05:29:53.408Z,2.60
2023-05-11T05:34:59.584Z,3.27
2023-05-11T05:40:03.717Z,3.10
2023-05-11T05:45:12.558Z,2.78
2023-05-11T05:50:19.436Z,2.37
2023-05-11T05:55:22.461Z,2.67
2023-05-11T06:00:26.427Z,3.08
2023-05-11T06:05:40.462Z,2.47
2023-05-11T06:10:43.707Z,2.10
2023-05-11T06:15:47.420Z,2.78
2023-05-11T06:21:12.065Z,3.90
2023-05-11T06:26:15.000Z,2.30
2023-05-11T06:31:18.005Z,2.60
2023-05-11T06:36:22.316Z,1.95
2023-05-11T06:41:25.468Z,2.70
2023-05-11T06:46:29.621Z,2.60
2023-05-11T06:51:34.883Z,2.28
2023-05-11T06:56:38.940Z,2.43
2023-05-11T07:01:42.372Z,2.28
2023-05-11T07:06:46.705Z,2.88
2023-05-11T07:11:49.630Z,2.43
2023-05-11T07:16:52.832Z,2.37
2023-05-11T07:21:57.478Z,2.97
2023-05-11T07:27:00.253Z,2.88
2023-05-11T07:32:03.252Z,2.30
2023-05-11T07:37:07.838Z,2.90
2023-05-11T07:42:11.687Z,2.45
2023-05-11T07:47:15.321Z,2.60
2023-05-11T07:52:23.161Z,2.00
2023-05-11T07:57:29.761Z,2.65
2023-05-11T08:02:33.587Z,2.20
2023-05-11T08:07:41.411Z,2.30
2023-05-11T08:12:46.877Z,2.30
2023-05-11T08:17:49.696Z,1.73
2023-05-11T08:22:57.588Z,2.27
2023-05-11T08:28:00.789Z,1.98
2023-05-11T08:33:15.418Z,2.00
2023-05-11T08:38:27.663Z,2.47
2023-05-11T08:43:34.669Z,1.92
2023-05-11T08:48:43.666Z,1.83
2023-05-11T08:53:49.514Z,2.30
2023-05-11T08:58:56.180Z,2.40
2023-05-11T09:03:59.601Z,2.10
2023-05-11T09:09:04.505Z,2.17
2023-05-11T09:14:09.300Z,2.00
2023-05-11T09:19:15.971Z,1.77
2023-05-11T09:24:21.760Z,2.30
2023-05-11T09:34:33.033Z,2.15
2023-05-11T09:39:53.261Z,2.20
2023-05-11T09:45:08.712Z,1.93
2023-05-11T09:50:27.013Z,2.10
2023-05-11T09:55:37.169Z,2.35
2023-05-11T10:00:53.576Z,1.90
2023-05-11T10:06:01.309Z,2.10
2023-05-11T10:11:08.811Z,1.27
2023-05-11T10:16:16.156Z,2.10
2023-05-11T10:21:19.227Z,1.90
2023-05-11T10:26:31.123Z,1.83
2023-05-11T10:31:37.151Z,2.03
2023-05-11T10:36:43.804Z,2.20
2023-05-11T10:42:14.714Z,1.83
2023-05-11T10:48:04.679Z,2.20
2023-05-11T10:53:51.735Z,1.88
2023-05-11T10:59:36.666Z,1.90
2023-05-11T11:04:47.404Z,1.70
2023-05-11T11:09:56.179Z,1.73
2023-05-11T11:15:08.390Z,1.87
2023-05-11T11:20:48.040Z,1.90
2023-05-11T11:25:53.840Z,2.70
2023-05-11T11:31:29.052Z,2.00
2023-05-11T11:37:06.024Z,1.93
2023-05-11T11:42:11.395Z,1.60
2023-05-11T11:47:18.795Z,1.60
2023-05-11T11:52:34.358Z,1.40
2023-05-11T11:57:43.666Z,1.52
2023-05-11T12:02:48.226Z,1.88
2023-05-11T12:07:53.538Z,1.77
2023-05-11T12:12:59.987Z,2.30
2023-05-11T12:18:08.712Z,1.88
2023-05-11T12:23:13.845Z,2.07
2023-05-11T12:28:21.133Z,1.93
2023-05-11T12:33:26.030Z,2.08
2023-05-11T12:38:30.087Z,2.22
2023-05-11T12:43:33.123Z,1.60
2023-05-11T12:48:53.502Z,1.70
2023-05-11T12:53:56.613Z,1.88
2023-05-11T12:59:00.630Z,1.73
2023-05-11T13:04:05.307Z,1.60
2023-05-11T13:09:09.936Z,2.30
2023-05-11T13:14:19.258Z,1.70
2023-05-11T13:19:30.756Z,1.90
2023-05-11T13:24:34.769Z,1.98
2023-05-11T13:29:38.465Z,1.30
2023-05-11T13:34:47.795Z,1.93
2023-05-11T13:39:50.553Z,1.67
2023-05-11T13:44:55.740Z,1.50
2023-05-11T13:50:00.458Z,1.77
2023-05-11T13:55:06.102Z,1.65
2023-05-11T14:00:10.709Z,2.10
2023-05-11T14:05:17.940Z,1.80
2023-05-11T14:10:21.278Z,1.60
2023-05-11T14:15:26.750Z,1.40
2023-05-11T14:20:35.963Z,1.80
2023-05-11T14:25:38.399Z,1.37
2023-05-11T14:30:44.045Z,1.95
2023-05-11T14:35:48.389Z,1.85
2023-05-11T14:40:53.521Z,1.80
2023-05-11T14:45:56.433Z,1.55
2023-05-11T14:51:00.628Z,2.22
2023-05-11T14:56:07.133Z,1.63
2023-05-11T15:01:09.821Z,2.20
2023-05-11T15:06:14.346Z,1.40
2023-05-11T15:11:16.891Z,1.88
2023-05-11T15:16:19.360Z,1.70
2023-05-11T15:21:23.369Z,1.73
2023-05-11T15:26:29.095Z,1.75
2023-05-11T15:31:32.351Z,1.70
2023-05-11T15:36:43.063Z,2.03
2023-05-11T15:41:45.542Z,2.10
2023-05-11T15:46:48.816Z,2.20
2023-05-11T15:51:52.880Z,1.77
2023-05-11T15:56:55.545Z,2.13
2023-05-11T16:01:58.154Z,1.55
2023-05-11T16:07:02.165Z,2.00
2023-05-11T16:12:05.646Z,2.22
2023-05-11T16:17:08.470Z,1.55
2023-05-11T16:22:12.688Z,2.03
2023-05-11T16:27:15.603Z,1.63
2023-05-11T16:32:18.130Z,2.47
2023-05-11T16:37:25.055Z,3.03
2023-05-11T16:42:31.937Z,2.17
2023-05-11T16:47:34.815Z,2.88
2023-05-11T16:52:43.753Z,2.25
2023-05-11T16:57:48.834Z,3.30
2023-05-11T17:02:52.087Z,2.50
2023-05-11T17:07:56.515Z,2.33
2023-05-11T17:12:59.091Z,2.73
2023-05-11T17:18:01.939Z,3.60
2023-05-11T17:23:05.982Z,4.60
2023-05-11T17:28:10.758Z,4.20
2023-05-11T17:33:13.384Z,3.47
2023-05-11T17:38:17.346Z,2.95
2023-05-11T17:43:23.201Z,2.88
2023-05-11T17:48:30.923Z,2.80
2023-05-11T17:53:34.814Z,3.40
2023-05-11T17:58:41.275Z,7.25
2023-05-11T18:03:44.211Z,10.77
2023-05-11T18:08:48.520Z,9.85
2023-05-11T18:13:53.891Z,6.15
2023-05-11T18:18:59.302Z,4.30
2023-05-11T18:24:03.593Z,2.87
2023-05-11T18:29:06.121Z,3.33
2023-05-11T18:34:08.572Z,5.00
2023-05-11T18:39:12.419Z,6.00
2023-05-11T18:44:17.748Z,6.10
2023-05-11T18:49:21.103Z,5.68
2023-05-11T18:54:25.165Z,4.83
2023-05-11T18:59:27.627Z,4.90
2023-05-11T19:04:30.377Z,5.47
2023-05-11T19:09:35.380Z,5.43
2023-05-11T19:14:38.033Z,5.63
2023-05-11T19:19:40.441Z,5.35
2023-05-11T19:24:44.273Z,4.80
2023-05-11T19:29:49.676Z,3.27
2023-05-11T19:34:52.057Z,2.83
2023-05-11T19:40:06.436Z,2.70
2023-05-11T19:45:19.495Z,2.73
2023-05-11T19:50:24.462Z,2.40
2023-05-11T19:55:29.080Z,2.40
2023-05-11T20:00:31.651Z,2.93
2023-05-11T20:05:34.278Z,3.00
2023-05-11T20:10:40.626Z,3.05
2023-05-11T20:15:44.045Z,3.30
2023-05-11T20:20:46.467Z,2.60
2023-05-11T20:25:50.550Z,2.80
2023-05-11T20:30:52.951Z,2.97
2023-05-11T20:35:58.109Z,2.87
2023-05-11T20:41:04.947Z,2.85
2023-05-11T20:46:12.312Z,3.00
2023-05-11T20:51:14.803Z,3.00
2023-05-11T20:56:18.784Z,3.43
2023-05-11T21:01:21.268Z,3.28
2023-05-11T21:06:30.750Z,3.70
2023-05-11T21:11:34.756Z,3.87
2023-05-11T21:16:38.966Z,3.63
2023-05-11T21:21:41.404Z,3.70
2023-05-11T21:26:47.082Z,4.07
2023-05-11T21:31:50.458Z,3.70
2023-05-11T21:36:52.845Z,3.63
2023-05-11T21:42:03.149Z,3.00
2023-05-11T21:47:06.049Z,3.65
2023-05-11T21:52:08.507Z,4.25
2023-05-11T21:57:13.714Z,3.93
2023-05-11T22:02:18.642Z,5.35
2023-05-11T22:07:21.073Z,4.70
2023-05-11T22:12:24.973Z,4.63
2023-05-11T22:17:27.426Z,4.40
2023-05-11T22:22:29.941Z,3.90
2023-05-11T22:27:33.761Z,3.60
2023-05-11T22:32:38.489Z,3.80
2023-05-11T22:37:40.851Z,4.03
2023-05-11T22:42:44.688Z,3.73
2023-05-11T22:47:47.197Z,3.40
2023-05-11T22:52:49.789Z,4.00
2023-05-11T22:57:53.744Z,3.27
2023-05-11T23:02:56.284Z,3.40
2023-05-11T23:07:58.776Z,3.50
2023-05-11T23:13:02.520Z,3.30
2023-05-11T23:18:05.209Z,3.40
2023-05-11T23:23:07.711Z,3.43
2023-05-11T23:28:14.377Z,2.87
2023-05-11T23:33:17.133Z,3.63
2023-05-11T23:38:19.575Z,2.97
2023-05-11T23:43:23.410Z,3.10
2023-05-11T23:48:28.827Z,3.03
2023-05-11T23:53:31.415Z,3.07
2023-05-11T23:58:35.610Z,3.00
